createdAt,value
2023-01-06T00:00:18.020Z,101379.56
2023-01-06T00:02:45.435Z,101378.22
2023-01-06T00:05:11.812Z,101379.72
2023-01-06T00:07:39.208Z,101389.34
2023-01-06T00:10:06.285Z,101380.41
2023-01-06T00:12:33.028Z,101383.94
2023-01-06T00:14:59.490Z,101378.50
2023-01-06T00:17:25.794Z,101382.59
2023-01-06T00:19:52.135Z,101379.22
2023-01-06T00:22:18.550Z,101374.81
2023-01-06T00:24:44.914Z,101372.44
2023-01-06T00:27:11.262Z,101383.63
2023-01-06T00:29:37.616Z,101353.56
2023-01-06T00:32:03.923Z,101385.81
2023-01-06T00:34:30.333Z,101373.09
2023-01-06T00:36:56.672Z,101373.44
2023-01-06T00:39:23.159Z,101371.75
2023-01-06T00:42:04.791Z,101374.31
2023-01-06T00:44:35.702Z,101367.19
2023-01-06T00:47:02.593Z,101368.03
2023-01-06T00:49:28.981Z,101367.03
2023-01-06T00:51:55.528Z,101363.47
2023-01-06T00:54:22.311Z,101362.31
2023-01-06T00:56:50.486Z,101357.25
2023-01-06T00:59:18.163Z,101362.16
2023-01-06T01:01:45.332Z,101358.28
2023-01-06T01:04:12.176Z,101357.78
2023-01-06T01:06:38.689Z,101354.88
2023-01-06T01:09:06.117Z,101348.63
2023-01-06T01:11:51.318Z,101350.78
2023-01-06T01:14:21.227Z,101349.13
2023-01-06T01:16:47.843Z,101358.75
2023-01-06T01:19:14.723Z,101351.81
2023-01-06T01:21:41.528Z,101354.03
2023-01-06T01:24:07.937Z,101352.34
2023-01-06T01:26:34.344Z,101340.66
2023-01-06T01:29:01.134Z,101345.44
2023-01-06T01:31:27.688Z,101354.56
2023-01-06T01:33:54.205Z,101349.81
2023-01-06T01:36:20.677Z,101355.94
2023-01-06T01:38:47.065Z,101351.53
2023-01-06T01:41:16.391Z,101351.22
2023-01-06T01:43:43.898Z,101347.50
2023-01-06T01:46:10.824Z,101340.03
2023-01-06T01:48:37.669Z,101345.97
2023-01-06T01:51:06.680Z,101348.66
2023-01-06T01:53:36.093Z,101346.47
2023-01-06T01:56:04.463Z,101351.22
2023-01-06T01:58:36.786Z,101354.09
2023-01-06T02:01:03.297Z,101348.50
2023-01-06T02:03:29.667Z,101349.53
2023-01-06T02:05:58.115Z,101353.63
2023-01-06T02:08:31.845Z,101348.56
2023-01-06T02:10:58.200Z,101352.28
2023-01-06T02:13:24.645Z,101344.81
2023-01-06T02:15:56.128Z,101347.03
2023-01-06T02:18:33.213Z,101345.53
2023-01-06T02:20:59.541Z,101345.88
2023-01-06T02:23:38.877Z,101340.78
2023-01-06T02:26:23.926Z,101338.06
2023-01-06T02:29:16.187Z,101337.03
2023-01-06T02:32:02.507Z,101326.59
2023-01-06T02:34:47.771Z,101320.50
2023-01-06T02:37:18.402Z,101317.09
2023-01-06T02:40:03.643Z,101316.41
2023-01-06T02:42:40.209Z,101319.81
2023-01-06T02:45:06.750Z,101303.72
2023-01-06T02:47:39.844Z,101300.53
2023-01-06T02:50:24.936Z,101296.13
2023-01-06T02:52:51.239Z,101292.75
2023-01-06T02:55:29.173Z,101290.03
2023-01-06T02:58:01.756Z,101286.00
2023-01-06T03:00:35.043Z,101292.22
2023-01-06T03:03:04.540Z,101293.09
2023-01-06T03:05:33.001Z,101283.94
2023-01-06T03:08:01.675Z,101287.66
2023-01-06T03:10:29.240Z,101292.22
2023-01-06T03:13:00.151Z,101293.09
2023-01-06T03:15:26.553Z,101288.88
2023-01-06T03:17:53.017Z,101280.56
2023-01-06T03:20:19.774Z,101284.63
2023-01-06T03:22:46.080Z,101282.94
2023-01-06T03:25:12.625Z,101283.81
2023-01-06T03:27:39.005Z,101284.09
2023-01-06T03:30:09.622Z,101280.88
2023-01-06T03:32:47.621Z,101289.00
2023-01-06T03:35:30.283Z,101274.44
2023-01-06T03:38:06.288Z,101271.06
2023-01-06T03:40:35.669Z,101274.44
2023-01-06T03:43:16.109Z,101279.50
2023-01-06T03:45:50.620Z,101277.81
2023-01-06T03:48:24.808Z,101265.59
2023-01-06T03:51:05.437Z,101274.44
2023-01-06T03:53:34.860Z,101273.59
2023-01-06T03:56:08.801Z,101274.44
2023-01-06T03:58:37.521Z,101284.63
2023-01-06T04:01:04.140Z,101279.03
2023-01-06T04:03:30.821Z,101282.09
2023-01-06T04:05:57.207Z,101276.84
2023-01-06T04:08:23.548Z,101282.78
2023-01-06T04:10:49.949Z,101264.88
2023-01-06T04:13:16.331Z,101257.91
2023-01-06T04:15:42.828Z,101235.91
2023-01-06T04:18:09.296Z,101246.38
2023-01-06T04:20:35.702Z,101244.72
2023-01-06T04:23:02.096Z,101250.13
2023-01-06T04:25:28.451Z,101250.81
2023-01-06T04:27:54.987Z,101201.38
2023-01-06T04:30:21.372Z,101237.78
2023-01-06T04:32:47.829Z,101242.19
2023-01-06T04:35:14.296Z,101255.88
2023-01-06T04:37:40.669Z,101237.63
2023-01-06T04:40:07.690Z,101239.13
2023-01-06T04:42:54.091Z,101228.13
2023-01-06T04:45:20.424Z,101234.50
2023-01-06T04:47:46.883Z,101230.41
2023-01-06T04:50:13.255Z,101220.09
2023-01-06T04:52:39.702Z,101216.22
2023-01-06T04:55:06.225Z,101212.84
2023-01-06T04:57:32.574Z,101209.44
2023-01-06T04:59:58.974Z,101208.41
2023-01-06T05:02:25.432Z,101213.28
2023-01-06T05:04:51.812Z,101206.53
2023-01-06T05:07:18.156Z,101209.25
2023-01-06T05:09:44.511Z,101211.78
2023-01-06T05:12:10.838Z,101217.91
2023-01-06T05:14:37.220Z,101211.09
2023-01-06T05:17:03.585Z,101213.69
2023-01-06T05:19:29.913Z,101207.44
2023-01-06T05:21:56.288Z,101203.50
2023-01-06T05:24:22.655Z,101212.13
2023-01-06T05:26:48.984Z,101207.72
2023-01-06T05:29:16.942Z,101208.03
2023-01-06T05:31:43.476Z,101206.38
2023-01-06T05:34:10.848Z,101195.56
2023-01-06T05:36:37.175Z,101212.50
2023-01-06T05:39:03.555Z,101209.59
2023-01-06T05:41:29.946Z,101216.03
2023-01-06T05:43:56.789Z,101205.19
2023-01-06T05:46:23.211Z,101217.72
2023-01-06T05:48:49.647Z,101205.41
2023-01-06T05:51:16.654Z,101206.72
2023-01-06T05:53:44.007Z,101205.56
2023-01-06T05:56:11.693Z,101204.38
2023-01-06T05:58:40.320Z,101215.38
2023-01-06T06:01:07.191Z,101223.66
2023-01-06T06:03:33.572Z,101222.34
2023-01-06T06:06:03.806Z,101224.03
2023-01-06T06:08:30.218Z,101222.69
2023-01-06T06:10:56.584Z,101225.41
2023-01-06T06:13:24.424Z,101220.34
2023-01-06T06:15:50.849Z,101221.38
2023-01-06T06:18:17.243Z,101220.53
2023-01-06T06:20:43.577Z,101216.31
2023-01-06T06:23:09.931Z,101224.72
2023-01-06T06:25:36.261Z,101220.34
2023-01-06T06:28:02.639Z,101226.44
2023-01-06T06:30:29.021Z,101217.47
2023-01-06T06:32:55.437Z,101224.38
2023-01-06T06:35:21.786Z,101234.00
2023-01-06T06:37:48.472Z,101231.13
2023-01-06T06:40:14.829Z,101232.25
2023-01-06T06:42:41.181Z,101242.91
2023-01-06T06:45:08.007Z,101238.84
2023-01-06T06:47:34.333Z,101237.16
2023-01-06T06:50:00.693Z,101232.75
2023-01-06T06:52:27.056Z,101231.72
2023-01-06T06:54:53.405Z,101228.03
2023-01-06T06:57:19.796Z,101226.81
2023-01-06T06:59:46.133Z,101232.75
2023-01-06T07:02:12.656Z,101228.38
2023-01-06T07:04:39.158Z,101225.00
2023-01-06T07:07:05.526Z,101217.22
2023-01-06T07:09:31.877Z,101210.81
2023-01-06T07:11:58.279Z,101205.88
2023-01-06T07:14:24.625Z,101212.25
2023-01-06T07:16:50.933Z,101217.47
2023-01-06T07:19:17.350Z,101216.44
2023-01-06T07:21:43.664Z,101207.50
2023-01-06T07:24:10.145Z,101207.88
2023-01-06T07:26:36.509Z,101206.84
2023-01-06T07:29:02.825Z,101201.78
2023-01-06T07:31:29.210Z,101186.66
2023-01-06T07:33:55.558Z,101190.22
2023-01-06T07:36:21.898Z,101181.81
2023-01-06T07:38:48.301Z,101175.84
2023-01-06T07:41:14.690Z,101172.50
2023-01-06T07:43:41.006Z,101178.53
2023-01-06T07:46:07.414Z,101183.97
2023-01-06T07:48:33.821Z,101186.66
2023-01-06T07:51:00.165Z,101185.66
2023-01-06T07:53:26.680Z,101180.06
2023-01-06T07:55:53.240Z,101183.59
2023-01-06T07:58:19.744Z,101192.41
2023-01-06T08:00:46.366Z,101196.78
2023-01-06T08:03:12.836Z,101204.91
2023-01-06T08:05:41.794Z,101194.75
2023-01-06T08:08:08.892Z,101199.50
2023-01-06T08:10:35.330Z,101199.66
2023-01-06T08:13:01.664Z,101198.00
2023-01-06T08:15:27.994Z,101202.56
2023-01-06T08:17:54.956Z,101199.50
2023-01-06T08:20:21.682Z,101181.22
2023-01-06T08:22:48.023Z,101203.91
2023-01-06T08:25:14.459Z,101209.50
2023-01-06T08:27:40.782Z,101213.22
2023-01-06T08:30:07.498Z,101214.91
2023-01-06T08:32:33.834Z,101226.22
2023-01-06T08:35:00.223Z,101222.69
2023-01-06T08:37:26.775Z,101228.28
2023-01-06T08:39:53.160Z,101226.22
2023-01-06T08:42:19.845Z,101233.31
2023-01-06T08:44:46.173Z,101226.72
2023-01-06T08:47:12.526Z,101228.38
2023-01-06T08:49:38.823Z,101229.25
2023-01-06T08:52:05.648Z,101230.91
2023-01-06T08:54:32.094Z,101235.97
2023-01-06T08:56:58.433Z,101230.56
2023-01-06T08:59:24.811Z,101237.31
2023-01-06T09:01:51.894Z,101234.41
2023-01-06T09:04:18.421Z,101248.81
2023-01-06T09:06:44.810Z,101244.03
2023-01-06T09:09:12.235Z,101240.78
2023-01-06T09:11:42.742Z,101247.53
2023-01-06T09:14:10.009Z,101247.53
2023-01-06T09:16:36.406Z,101254.47
2023-01-06T09:19:02.784Z,101261.38
2023-01-06T09:21:29.088Z,101262.22
2023-01-06T09:23:55.462Z,101259.13
2023-01-06T09:26:21.990Z,101261.03
2023-01-06T09:28:48.443Z,101265.25
2023-01-06T09:31:14.911Z,101268.13
2023-01-06T09:33:41.493Z,101260.19
2023-01-06T09:36:07.898Z,101262.34
2023-01-06T09:38:34.312Z,101272.81
2023-01-06T09:41:00.635Z,101269.94
2023-01-06T09:43:30.038Z,101265.84
2023-01-06T09:46:01.037Z,101273.25
2023-01-06T09:48:29.913Z,101268.09
2023-01-06T09:50:58.474Z,101264.03
2023-01-06T09:53:40.299Z,101267.38
2023-01-06T09:56:08.515Z,101278.91
2023-01-06T09:58:45.840Z,101272.81
2023-01-06T10:01:15.865Z,101273.47
2023-01-06T10:03:45.503Z,101267.00
2023-01-06T10:06:28.929Z,101267.00
2023-01-06T10:08:58.320Z,101276.63
2023-01-06T10:11:44.615Z,101269.00
2023-01-06T10:14:17.937Z,101276.94
2023-01-06T10:17:01.968Z,101273.38
2023-01-06T10:19:45.444Z,101279.66
2023-01-06T10:22:17.821Z,101283.00
2023-01-06T10:24:57.220Z,101286.59
2023-01-06T10:27:26.770Z,101293.72
2023-01-06T10:29:55.018Z,101288.63
2023-01-06T10:32:22.062Z,101284.22
2023-01-06T10:34:50.110Z,101297.44
2023-01-06T10:37:16.433Z,101297.09
2023-01-06T10:39:44.250Z,101287.78
2023-01-06T10:42:36.897Z,101296.84
2023-01-06T10:45:03.456Z,101305.69
2023-01-06T10:47:31.571Z,101291.53
2023-01-06T10:49:59.114Z,101294.25
2023-01-06T10:52:26.599Z,101294.25
2023-01-06T10:54:55.042Z,101289.50
2023-01-06T10:57:23.431Z,101289.16
2023-01-06T11:00:09.430Z,101286.91
2023-01-06T11:02:35.974Z,101282.25
2023-01-06T11:05:02.612Z,101284.59
2023-01-06T11:07:29.697Z,101287.13
2023-01-06T11:09:57.148Z,101287.28
2023-01-06T11:12:26.993Z,101285.56
2023-01-06T11:15:03.595Z,101283.09
2023-01-06T11:17:30.156Z,101272.19
2023-01-06T11:20:15.679Z,101278.06
2023-01-06T11:22:42.530Z,101277.69
2023-01-06T11:25:32.191Z,101287.13
2023-01-06T11:28:12.887Z,101276.94
2023-01-06T11:30:42.441Z,101284.91
2023-01-06T11:33:15.616Z,101279.84
2023-01-06T11:35:42.038Z,101280.22
2023-01-06T11:38:12.494Z,101284.34
2023-01-06T11:40:39.023Z,101273.19
2023-01-06T11:43:12.513Z,101287.78
2023-01-06T11:45:41.908Z,101273.81
2023-01-06T11:48:17.623Z,101280.66
2023-01-06T11:50:50.689Z,101281.34
2023-01-06T11:53:18.660Z,101279.34
2023-01-06T11:55:57.474Z,101276.19
2023-01-06T11:58:36.001Z,101266.91
2023-01-06T12:01:09.448Z,101271.84
2023-01-06T12:03:43.837Z,101270.44
2023-01-06T12:06:13.277Z,101267.00
2023-01-06T12:08:48.183Z,101267.97
2023-01-06T12:11:29.903Z,101265.63
2023-01-06T12:14:13.099Z,101267.97
2023-01-06T12:16:55.721Z,101256.09
2023-01-06T12:19:32.641Z,101266.28
2023-01-06T12:21:59.559Z,101273.09
2023-01-06T12:24:26.821Z,101269.44
2023-01-06T12:26:53.682Z,101266.06
2023-01-06T12:29:20.969Z,101265.69
2023-01-06T12:31:50.259Z,101279.63
2023-01-06T12:34:29.527Z,101264.56
2023-01-06T12:37:14.735Z,101266.06
2023-01-06T12:39:53.060Z,101268.09
2023-01-06T12:42:23.737Z,101266.16
2023-01-06T12:44:52.075Z,101261.50
2023-01-06T12:47:31.278Z,101250.28
2023-01-06T12:50:20.969Z,101255.59
2023-01-06T12:52:50.552Z,101259.97
2023-01-06T12:55:18.893Z,101255.91
2023-01-06T12:57:51.457Z,101254.97
2023-01-06T13:00:17.841Z,101257.00
2023-01-06T13:02:58.471Z,101257.00
2023-01-06T13:05:39.983Z,101260.75
2023-01-06T13:08:12.401Z,101268.88
2023-01-06T13:11:08.189Z,101256.31
2023-01-06T13:13:53.417Z,101259.63
2023-01-06T13:16:29.740Z,101258.13
2023-01-06T13:19:07.228Z,101221.00
2023-01-06T13:21:35.267Z,101248.75
2023-01-06T13:24:09.211Z,101243.66
2023-01-06T13:26:47.802Z,101244.28
2023-01-06T13:29:33.821Z,101248.88
2023-01-06T13:32:00.210Z,101241.38
2023-01-06T13:34:47.857Z,101245.13
2023-01-06T13:37:20.278Z,101237.19
2023-01-06T13:39:54.238Z,101245.88
2023-01-06T13:42:27.935Z,101238.78
2023-01-06T13:44:54.438Z,101238.97
2023-01-06T13:47:22.705Z,101252.53
2023-01-06T13:49:49.690Z,101255.91
2023-01-06T13:52:18.620Z,101219.75
2023-01-06T13:54:44.932Z,101248.88
2023-01-06T13:57:20.392Z,101248.41
2023-01-06T13:59:49.851Z,101242.72
2023-01-06T14:02:36.401Z,101248.31
2023-01-06T14:05:03.794Z,101244.56
2023-01-06T14:07:31.746Z,101236.44
2023-01-06T14:09:58.423Z,101235.88
2023-01-06T14:12:24.782Z,101242.53
2023-01-06T14:14:55.688Z,101246.72
2023-01-06T14:17:29.726Z,101252.69
2023-01-06T14:19:56.345Z,101252.88
2023-01-06T14:22:24.767Z,101256.63
2023-01-06T14:24:52.863Z,101248.88
2023-01-06T14:27:38.157Z,101249.31
2023-01-06T14:30:19.715Z,101247.75
2023-01-06T14:32:46.192Z,101250.84
2023-01-06T14:35:13.935Z,101239.25
2023-01-06T14:37:43.506Z,101242.59
2023-01-06T14:40:21.207Z,101240.81
2023-01-06T14:42:47.869Z,101240.34
2023-01-06T14:45:37.359Z,101244.09
2023-01-06T14:48:09.970Z,101245.78
2023-01-06T14:50:46.944Z,101255.97
2023-01-06T14:53:20.536Z,101253.81
2023-01-06T14:55:48.687Z,101251.94
2023-01-06T14:58:41.311Z,101254.97
2023-01-06T15:01:20.647Z,101252.25
2023-01-06T15:03:54.019Z,101254.75
2023-01-06T15:06:24.359Z,101256.09
2023-01-06T15:08:51.103Z,101250.00
2023-01-06T15:11:20.410Z,101254.09
2023-01-06T15:13:46.857Z,101247.81
2023-01-06T15:16:23.147Z,101258.84
2023-01-06T15:18:52.181Z,101249.91
2023-01-06T15:21:40.080Z,101243.13
2023-01-06T15:24:25.919Z,101251.00
2023-01-06T15:26:53.299Z,101250.16
2023-01-06T15:29:21.053Z,101246.28
2023-01-06T15:31:48.661Z,101243.09
2023-01-06T15:34:18.201Z,101247.66
2023-01-06T15:37:06.438Z,101209.59
2023-01-06T15:39:52.019Z,101241.94
2023-01-06T15:42:40.035Z,101237.38
2023-01-06T15:45:32.243Z,101244.84
2023-01-06T15:48:20.775Z,101245.69
2023-01-06T15:51:12.825Z,101243.84
2023-01-06T15:53:58.985Z,101214.34
2023-01-06T15:56:43.834Z,101251.25
2023-01-06T15:59:28.794Z,101248.34
2023-01-06T16:02:18.316Z,101244.97
2023-01-06T16:05:03.369Z,101250.38
2023-01-06T16:07:48.198Z,101248.03
2023-01-06T16:10:34.757Z,101251.59
2023-01-06T16:13:29.292Z,101255.81
2023-01-06T16:16:14.169Z,101256.94
2023-01-06T16:19:07.173Z,101263.94
2023-01-06T16:21:53.663Z,101262.25
2023-01-06T16:24:38.902Z,101263.63
2023-01-06T16:27:24.963Z,101259.25
2023-01-06T16:30:13.085Z,101262.31
2023-01-06T16:33:00.191Z,101258.97
2023-01-06T16:35:45.103Z,101250.66
2023-01-06T16:38:29.903Z,101265.75
2023-01-06T16:41:18.484Z,101261.09
2023-01-06T16:44:04.203Z,101257.88
2023-01-06T16:46:49.027Z,101254.31
2023-01-06T16:49:33.970Z,101249.06
2023-01-06T16:52:18.766Z,101239.44
2023-01-06T16:55:11.046Z,101245.06
2023-01-06T16:57:57.295Z,101248.97
2023-01-06T17:00:44.128Z,101250.56
2023-01-06T17:03:30.358Z,101254.09
2023-01-06T17:06:17.427Z,101247.66
2023-01-06T17:09:02.477Z,101255.44
2023-01-06T17:11:48.043Z,101251.88
2023-01-06T17:14:34.982Z,101249.25
2023-01-06T17:17:02.919Z,101254.91
2023-01-06T17:19:47.797Z,101252.81
2023-01-06T17:22:32.608Z,101258.75
2023-01-06T17:25:14.205Z,101251.44
2023-01-06T17:27:58.909Z,101248.91
2023-01-06T17:30:43.576Z,101251.59
2023-01-06T17:33:30.532Z,101254.69
2023-01-06T17:36:19.854Z,101255.72
2023-01-06T17:39:14.151Z,101254.69
2023-01-06T17:42:12.737Z,101254.03
2023-01-06T17:44:59.949Z,101267.28
2023-01-06T17:47:49.319Z,101262.72
2023-01-06T17:50:35.926Z,101265.25
2023-01-06T17:53:47.721Z,101262.53
2023-01-06T17:56:34.384Z,101272.34
2023-01-06T17:59:21.025Z,101267.94
2023-01-06T18:02:26.201Z,101269.81
2023-01-06T18:05:21.713Z,101261.31
2023-01-06T18:08:08.332Z,101261.66
2023-01-06T18:10:57.287Z,101256.63
2023-01-06T18:13:43.931Z,101249.53
2023-01-06T18:16:31.736Z,101255.47
2023-01-06T18:19:26.432Z,101258.72
2023-01-06T18:22:15.854Z,101263.31
2023-01-06T18:25:02.602Z,101269.75
2023-01-06T18:27:49.978Z,101276.88
2023-01-06T18:30:36.654Z,101272.44
2023-01-06T18:33:24.402Z,101267.03
2023-01-06T18:36:11.051Z,101255.47
2023-01-06T18:39:00.327Z,101267.34
2023-01-06T18:41:47.144Z,101260.88
2023-01-06T18:44:34.477Z,101262.97
2023-01-06T18:47:24.618Z,101268.19
2023-01-06T18:50:23.490Z,101272.59
2023-01-06T18:53:12.887Z,101267.69
2023-01-06T18:56:01.791Z,101269.56
2023-01-06T18:58:54.846Z,101266.03
2023-01-06T19:01:44.331Z,101262.47
2023-01-06T19:04:32.808Z,101262.63
2023-01-06T19:07:24.911Z,101258.25
2023-01-06T19:10:24.051Z,101264.63
2023-01-06T19:13:22.228Z,101264.63
2023-01-06T19:16:27.469Z,101251.81
2023-01-06T19:19:23.986Z,101262.63
2023-01-06T19:22:22.610Z,101255.53
2023-01-06T19:25:18.106Z,101255.38
2023-01-06T19:28:10.856Z,101247.06
2023-01-06T19:31:04.381Z,101248.38
2023-01-06T19:33:53.968Z,101246.16
2023-01-06T19:36:42.081Z,101245.97
2023-01-06T19:39:31.510Z,101251.38
2023-01-06T19:42:19.767Z,101237.00
2023-01-06T19:45:15.873Z,101248.47
2023-01-06T19:48:08.618Z,101244.78
2023-01-06T19:51:14.148Z,101240.84
2023-01-06T19:54:11.940Z,101231.41
2023-01-06T19:56:58.753Z,101240.19
2023-01-06T19:59:45.345Z,101233.06
2023-01-06T20:02:40.410Z,101231.03
2023-01-06T20:05:28.116Z,101232.72
2023-01-06T20:08:14.762Z,101229.34
2023-01-06T20:11:01.518Z,101228.97
2023-01-06T20:13:48.237Z,101240.00
2023-01-06T20:16:34.967Z,101237.47
2023-01-06T20:19:21.760Z,101243.06
2023-01-06T20:22:08.448Z,101238.50
2023-01-06T20:24:57.394Z,101235.13
2023-01-06T20:27:44.031Z,101240.94
2023-01-06T20:30:30.760Z,101230.09
2023-01-06T20:33:17.355Z,101239.72
2023-01-06T20:36:04.025Z,101234.47
2023-01-06T20:38:50.924Z,101244.63
2023-01-06T20:41:37.545Z,101236.31
2023-01-06T20:44:24.142Z,101235.13
2023-01-06T20:47:10.757Z,101242.78
2023-01-06T20:49:57.450Z,101248.38
2023-01-06T20:52:47.120Z,101243.31
2023-01-06T20:55:33.863Z,101249.59
2023-01-06T20:58:20.477Z,101246.03
2023-01-06T21:01:07.172Z,101247.88
2023-01-06T21:03:53.914Z,101249.94
2023-01-06T21:06:40.596Z,101248.06
2023-01-06T21:09:29.074Z,101241.16
2023-01-06T21:12:15.707Z,101239.84
2023-01-06T21:15:02.392Z,101247.47
2023-01-06T21:17:49.053Z,101245.59
2023-01-06T21:20:35.625Z,101236.09
2023-01-06T21:23:22.256Z,101231.16
2023-01-06T21:26:08.869Z,101234.72
2023-01-06T21:28:55.563Z,101237.03
2023-01-06T21:31:43.719Z,101243.81
2023-01-06T21:34:30.656Z,101246.03
2023-01-06T21:37:17.776Z,101243.31
2023-01-06T21:40:08.066Z,101238.56
2023-01-06T21:43:09.741Z,101232.13
2023-01-06T21:45:56.408Z,101232.78
2023-01-06T21:48:43.169Z,101229.06
2023-01-06T21:51:29.797Z,101228.03
2023-01-06T21:54:16.523Z,101227.84
2023-01-06T21:57:03.202Z,101234.13
2023-01-06T21:59:49.860Z,101231.75
2023-01-06T22:02:36.768Z,101234.28
2023-01-06T22:05:23.656Z,101236.81
2023-01-06T22:08:10.340Z,101238.03
2023-01-06T22:10:57.066Z,101245.13
2023-01-06T22:13:43.813Z,101231.28
2023-01-06T22:16:30.450Z,101234.66
2023-01-06T22:19:17.171Z,101231.22
2023-01-06T22:22:03.976Z,101235.59
2023-01-06T22:24:51.864Z,101235.13
2023-01-06T22:27:38.586Z,101236.31
2023-01-06T22:30:25.490Z,101235.97
2023-01-06T22:33:12.182Z,101231.41
2023-01-06T22:35:58.901Z,101234.75
2023-01-06T22:38:45.500Z,101234.13
2023-01-06T22:41:32.130Z,101234.13
2023-01-06T22:44:18.810Z,101246.34
2023-01-06T22:47:05.436Z,101235.78
2023-01-06T22:49:52.015Z,101235.97
2023-01-06T22:52:38.741Z,101229.69
2023-01-06T22:55:25.317Z,101231.28
2023-01-06T22:58:11.979Z,101238.56
2023-01-06T23:00:58.579Z,101227.06
2023-01-06T23:03:45.470Z,101226.59
2023-01-06T23:06:32.210Z,101225.38
2023-01-06T23:09:00.843Z,101227.41
2023-01-06T23:11:28.517Z,101230.91
2023-01-06T23:13:56.455Z,101227.56
2023-01-06T23:16:23.202Z,101228.38
2023-01-06T23:18:49.974Z,101227.19
2023-01-06T23:21:21.904Z,101230.09
2023-01-06T23:23:49.160Z,101238.22
2023-01-06T23:26:20.703Z,101231.59
2023-01-06T23:28:47.086Z,101222.25
2023-01-06T23:31:14.936Z,101217.50
2023-01-06T23:33:42.722Z,101217.13
2023-01-06T23:36:10.300Z,101216.28
2023-01-06T23:38:37.220Z,101217.13
2023-01-06T23:41:04.581Z,101206.94
2023-01-06T23:43:31.957Z,101210.19
2023-01-06T23:46:06.133Z,101204.41
2023-01-06T23:48:33.369Z,101202.56
2023-01-06T23:51:00.135Z,101194.41
2023-01-06T23:53:27.034Z,101195.06
2023-01-06T23:56:00.781Z,101197.13
2023-01-06T23:58:28.179Z,101192.34
